Florence, Wisconsin
Current Conditions -  °F | °C
As of 2:13 AM on Monday 22 Dec 2014 (Local Time) from KIMT Reporting Station
Haze Haze  
Wind Chill: 27°   Ceiling: 1000
Heat Index: 33°   Visibility: 4mi
Dew Point: 30°   Wind: 7mph
Humidity: 89%   Direction: 160°SSE
Pressure: 29.9"   Gusts: NA
Location:  45.92°N, 88.25°W
Report Text: KIMT 220813Z AUTO 16006KT 4SM BR OVC010 01/M01 A2990 RMK AO2 CIG 007V012 T00061011
Loading
Personal Weather Stations






























Interactive Weather Map New forecast layout! Learn more

10-Day Weather Forecast

Advertisements
Track Severe Weather on mobile